Air Resources Laboratory banner image
Air Resources Laboratory web site National Oceanic and Atmospheric Administration (NOAA)

wi metar


KAIG 250655Z AUTO 14011KT 1SM SN OVC006 M01/M01 A2935 RMK AO2 T10121012=
KAIG 250715Z AUTO 14011KT 1 1/2SM -SN BKN006 OVC014 M01/M01 A2934 RMK AO2
 T10111011=
KARV 250655Z AUTO 16006KT 1 1/2SM -SN OVC006 00/M01 A2933 RMK AO2 P0004
 T10011010=
KASX 250653Z AUTO 05006KT 1SM -SN BR SCT004 OVC019 M02/M03 A2937 RMK AO2 SLP957
 P0000 T10221028=
KATW 250655Z AUTO 16007KT 5SM -RA OVC005 01/01 A2937 RMK AO2 P0006=
KAUW 250654Z AUTO 14006KT 1 1/4SM -SN BR BKN006 OVC012 00/00 A2934 RMK AO2
 SLP952 P0005 T00000000=
KCLI 250655Z AUTO 00000KT 1 3/4SM -SN OVC004 00/00 A2939 RMK AO2 P0005
 T00031001 400311060=
KCMY 250715Z AUTO 25014G19KT 10SM BKN015 OVC019 M01/M02 A2949 RMK AO2 T10101023=
KCWA 250655Z AUTO 16006KT 3SM -SN OVC004 00/00 A2937 RMK AO2 P0001=
KDLL 250655Z AUTO 25013G19KT 10SM OVC010 01/00 A2945 RMK AO2 T00060000=
KEAU 250656Z AUTO 24013G20KT 9SM BKN009 OVC014 M01/M01 A2940 RMK AO2 SNE22 CIG
 006V012 SLP965 P0000 T10061011=
KEFT 250655Z AUTO 25024G40KT 10SM BKN012 OVC019 00/00 A2953 RMK AO2=
KEGV 250655Z AUTO 15004KT 3/4SM SN OVC004 M02/M02 A2934 RMK AO2 T10211021=
KENW 250653Z AUTO 23006KT 4SM -RA BR SCT012 BKN022 OVC038 05/04 A2944 RMK AO2
 SLP975 P0009 T00500044=
KETB 250655Z AUTO 17006KT 7SM -DZ OVC004 02/02 A2940 RMK AO2 P0002=
KFLD 250653Z AUTO 19006KT 10SM -RA BKN010 OVC015 03/01 A2937 RMK AO2 PRESFR
 SLP953 P0003 T00280011 TSNO=
KGRB 250653Z 17007KT 9SM -RA OVC009 02/00 A2940 RMK AO2 RAE22B47SNB22E47 SLP964
 P0017 T00170000=
KHYR 250653Z AUTO 00000KT 3SM -SN BR FEW011 BKN020 OVC027 M02/M03 A2934 RMK AO2
 SLP951 P0001 T10171028=
KISW 250654Z AUTO 3SM -SN BR OVC004 01/M01 A2941 RMK AO2 SLP968 P0002 T00061011
 $=
KJVL 250655Z AUTO 26021G28KT 10SM OVC012 02/02 A2953 RMK AO2=
KLNR 250656Z AUTO 26019G31KT 10SM BKN018 OVC022 01/M01 A2952 RMK AO2 PK WND
 27031/0654 UPB19E27SNB18E19B27E28 SLP999 P0000 T00111011=
KLSE 250653Z AUTO 25013G21KT 9SM OVC015 M01/M04 A2952 RMK AO2 PK WND 25026/0602
 SLP008 T10061039 $=
KMDZ 250655Z AUTO 17008KT 5SM UP SCT005 OVC012 M01/M02 A2934 RMK AO2 T10101016=
KMFI 250654Z AUTO 21009KT 2 1/2SM -SN BR OVC007 00/M01 A2936 RMK AO2 SLP957
 P0001 T00001006 TSNO=
KMKE 250652Z 21008KT 5SM -RA BR SCT006 BKN013 OVC017 04/04 A2942 RMK AO2 SLP968
 P0014 T00440039=
KMRJ 250655Z AUTO 26019G29KT 10SM OVC012 00/ A2953 RMK AO2=
KMSN 250653Z AUTO 26009G21KT 210V310 10SM OVC011 02/01 A2949 RMK AO2 PK WND
 27031/0638 RAE03 SLP994 P0000 T00170006=
KMTW 250656Z AUTO 18010KT 3SM -RA BR OVC003 02/02 A2942 RMK AO2 PRESFR SLP983
 P0013 T00220017 FZRANO=
KMWC 250655Z AUTO 18006KT 2 1/2SM -RA OVC005 03/01 A2942 RMK AO2 P0005=
KOEO 250655Z AUTO 25014G18KT 2SM -SN BKN009 OVC013 M02/M02 A2946 RMK AO2
 T10241024=
KOSH 250653Z AUTO 21006KT 10SM -RA OVC009 02/02 A2939 RMK AO2 UPB34E42 CIG
 007V011 SLP961 P0004 T00220017=
KOVS 250653Z AUTO 25011G24KT 10SM OVC018 00/M03 A2957 RMK AO2 PK WND 26029/0607
 SLP020 T00001033=
KPBH 250655Z AUTO 14003KT 1 3/4SM -SN SCT004 BKN016 OVC022 M02/M02 A2932 RMK
 AO2 P0002 T10201020=
KPDC 250655Z AUTO 25020G30KT 10SM BKN020 OVC028 M02/M05 A2960 RMK AO2 P0001
 T10161055=
KRAC 250653Z AUTO 20005KT 5SM -RA BR FEW004 BKN011 OVC015 04/03 A2945 RMK AO2
 WSHFT 0555 SLP976 P0007 T00390033=
KRHI 250653Z AUTO 14005KT 3/4SM -SN BR VV009 M02/M02 A2935 RMK AO2 SLP955 P0007
 T10171017=
KRPD 250655Z AUTO 20006KT 10SM OVC010 M01/M01 A2939 RMK AO2 T10101010=
KRRL 250655Z AUTO 00000KT 1 1/4SM SN OVC005 M01/M01 A2936 RMK AO2 P0005
 T10071007=
KRYV 250655Z AUTO 24015G19KT 10SM OVC006 03/03 A2944 RMK AO2 P0002 T00310031=
KSBM 250653Z AUTO 18008KT 3SM -SN BR OVC005 02/02 A2940 RMK AO2 RAE44SNB44
 PRESFR SLP963 P0007 T00220022 TSNO=
KSTE 250655Z AUTO 20003KT 3SM UP OVC004 00/00 A2938 RMK AO2 P0004 T10051005=
KSUE 250656Z AUTO 17009KT 2SM -SN BR OVC004 01/01 A2942 RMK AO2 PK WND
 12027/0602 RAE48SNB48 SLP986 P0019 T00110006 FZRANO=
KSUW 250655Z AUTO 08006KT 1 1/4SM -SN OVC005 M02/M02 A2937 RMK AO2 P0002
 T10201022=
KUES 250655Z AUTO 21007KT 4SM -RA OVC003 02/02 A2944 RMK AO2 P0001=
KUNU 250655Z AUTO 21008KT 2 1/2SM BR OVC004 02/02 A2944 RMK AO2 P0001 T00200017=
KVOK 250656Z AUTO 24014G23KT 10SM OVC015 01/01 A2943 RMK AO2
 DZB09E10RAB10E20UPB49E52 SLP977 P0000 T00100006=